Date,TemperatureHighF,TemperatureAvgF,TemperatureLowF,DewpointHighF,DewpointAvgF,DewpointLowF,HumidityHigh,HumidityAvg,HumidityLow,PressureMaxIn,PressureMinIn,WindSpeedMaxMPH,WindSpeedAvgMPH,GustSpeedMaxMPH,PrecipitationSumIn
2012-2-1,68.0,67.5,66.5,54.0,52.7,51.0,62,59,55,29.29,29.23,0,0,14,0.00
2012-2-2,67.2,44.9,29.7,52.0,38.3,27.0,97,81,35,29.52,29.28,4,0,6,0.06
2012-2-3,37.5,33.2,29.6,35.0,31.7,29.0,98,94,88,29.58,29.44,5,1,8,0.00
2012-2-4,43.6,37.0,28.7,36.0,32.4,27.0,94,84,66,29.45,29.30,8,2,13,0.00
2012-2-5,40.6,32.2,25.0,34.0,29.2,24.0,97,88,72,29.42,29.31,2,0,8,0.00
2012-2-6,31.7,29.6,28.2,29.0,27.7,26.0,97,93,87,29.34,29.23,6,2,13,0.00
2012-2-7,33.4,30.1,26.6,32.0,27.0,22.0,97,88,80,29.51,29.30,7,2,11,0.00
2012-2-8,34.4,27.3,22.3,22.0,19.5,16.0,86,73,51,29.51,29.40,5,2,11,0.00
2012-2-9,34.1,26.5,18.1,27.0,20.9,16.0,92,80,60,29.40,29.17,7,2,13,0.00
2012-2-10,33.5,24.9,11.0,31.0,21.1,4.0,92,85,72,29.37,29.01,13,2,17,0.00
2012-2-11,21.9,15.1,8.2,6.0,2.6,-1.0,74,58,44,29.51,29.38,10,3,17,0.00
2012-2-12,35.4,24.6,14.2,15.7,10.0,3.0,78,55,35,30.41,29.44,13,2,13,0.00
2012-2-13,34.9,26.1,14.9,28.1,20.6,9.0,93,80,57,30.19,29.80,9,2,10,0.01
2012-2-14,35.0,32.3,28.6,31.0,29.5,26.0,95,89,83,29.96,29.76,5,1,9,0.02
2012-2-15,40.3,35.9,31.5,37.0,33.7,30.0,97,91,83,30.01,29.91,6,1,8,0.27
2012-2-16,46.0,36.3,30.6,37.0,30.6,25.0,98,81,47,30.09,29.92,8,1,12,0.00
2012-2-17,48.0,35.6,25.4,38.0,29.5,23.0,93,79,64,30.11,29.94,8,1,9,0.00
2012-2-18,41.3,33.0,23.8,28.0,25.1,20.0,92,74,50,30.20,30.01,7,1,8,0.00
2012-2-19,40.2,31.0,19.9,28.4,23.2,18.0,95,75,53,30.20,30.12,6,1,7,0.00
2012-2-20,42.3,33.8,21.6,28.3,25.4,19.0,91,72,52,30.25,29.83,16,3,16,0.00
2012-2-21,42.4,36.5,33.2,36.0,32.3,28.0,95,85,69,29.81,29.58,10,2,19,0.08
2012-2-22,43.8,36.0,29.4,38.0,33.0,27.0,96,89,75,29.64,29.37,5,0,9,0.00
2012-2-23,36.8,32.2,27.0,35.0,31.3,26.0,98,96,90,29.50,29.41,7,1,8,0.14
2012-2-24,35.2,29.6,22.2,32.0,26.4,18.0,97,88,76,29.93,29.39,17,3,21,0.23
2012-2-25,26.4,19.6,7.1,18.0,13.5,5.0,91,78,64,30.30,29.93,12,2,12,0.01
2012-2-26,48.2,33.7,7.4,35.0,25.4,5.0,95,73,56,30.28,29.92,18,4,22,0.04
2012-2-27,35.1,30.1,22.1,27.0,22.9,20.0,92,75,65,30.45,30.05,18,2,22,0.00
2012-2-28,39.3,33.6,20.9,36.0,28.3,19.0,94,81,69,30.44,29.73,14,3,14,0.04
2012-2-29,53.1,42.0,33.6,49.0,37.2,30.6,98,84,52,29.71,29.37,23,5,24,0.23
2012-3-1,38.5,36.2,34.8,34.0,33.1,32.0,94,88,80,29.80,29.57,9,2,16,0.00
2012-3-2,39.0,34.2,32.0,36.0,32.6,29.0,97,94,88,29.73,29.29,11,3,13,0.02
2012-3-3,31.5,29.6,27.9,29.0,25.8,23.0,90,85,77,29.80,29.56,20,3,20,0.06
2012-3-4,29.7,27.3,21.4,25.0,22.9,19.0,91,84,76,30.00,29.78,7,1,8,0.08
2012-3-5,33.9,28.8,18.8,27.1,23.5,16.0,95,81,64,30.35,30.02,10,2,13,0.13
2012-3-6,64.9,48.0,30.8,48.0,36.0,26.0,85,65,48,30.17,29.78,15,5,24,0.13
2012-3-7,66.5,58.2,52.3,53.0,46.4,38.0,84,65,59,29.88,29.67,16,6,27,0.02
2012-3-8,52.6,38.3,33.0,50.0,29.3,23.0,93,72,46,30.18,29.72,17,4,18,0.06
2012-3-9,40.7,32.7,27.6,28.0,16.3,11.0,74,52,31,30.51,30.15,8,2,15,0.00
2012-3-10,59.3,45.4,27.2,35.3,28.4,19.0,73,53,37,30.46,30.13,17,3,17,0.00
2012-3-11,65.9,55.4,34.9,46.0,34.4,29.0,78,48,27,30.20,29.94,11,3,15,0.00
2012-3-12,60.1,54.3,47.3,56.1,51.5,46.0,97,91,74,29.93,29.67,13,3,16,0.67
2012-3-13,67.2,55.6,41.9,48.0,42.7,34.6,98,67,33,30.05,29.86,6,1,7,0.01
2012-3-14,78.0,64.6,54.1,64.0,55.6,38.0,88,74,48,29.97,29.81,15,2,15,0.00
2012-3-15,78.3,66.3,55.7,64.0,58.9,52.0,96,78,52,29.92,29.84,7,1,11,0.00
2012-3-16,79.3,64.6,47.7,63.0,55.5,46.0,98,74,55,29.98,29.90,6,1,10,0.00
2012-3-17,79.8,68.8,58.2,64.0,58.8,54.0,96,72,51,29.99,29.85,14,3,15,0.03
2012-3-18,79.0,68.6,55.9,62.6,58.0,52.0,90,70,53,29.96,29.85,9,2,18,0.08
2012-3-19,76.8,67.3,62.3,65.0,61.1,58.0,95,81,62,29.94,29.79,11,3,18,0.04
2012-3-20,82.6,72.8,62.8,60.0,55.0,50.0,76,56,33,29.95,29.82,12,4,19,0.00
2012-3-21,83.4,73.1,62.2,59.0,55.7,52.1,77,56,36,30.01,29.92,9,3,13,0.00
2012-3-22,81.4,68.5,61.5,64.0,58.5,54.0,96,72,45,30.00,29.93,22,2,22,0.94
2012-3-23,66.3,61.6,52.4,62.0,58.9,51.0,96,91,79,29.93,29.72,5,2,8,0.22
2012-3-24,65.5,57.4,51.8,59.0,55.4,51.0,98,93,77,29.95,29.73,4,1,18,0.00
2012-3-25,73.3,59.8,45.2,60.0,53.8,41.0,99,82,52,30.16,29.95,9,2,9,0.00
2012-3-26,46.9,40.6,36.3,41.0,31.7,27.0,86,71,46,30.39,30.17,10,4,19,0.00
2012-3-27,72.2,52.3,39.5,54.0,37.4,25.0,80,58,45,30.24,29.78,17,5,22,0.00
2012-3-28,64.2,57.4,45.8,55.0,44.3,40.0,90,63,49,30.03,29.78,21,4,21,0.00
2012-3-29,54.6,43.7,37.1,40.0,35.1,32.5,88,72,56,30.17,29.99,11,3,11,0.00
2012-3-30,50.6,45.3,37.7,48.0,42.3,34.0,95,89,82,29.98,29.74,9,2,20,0.19
2012-3-31,51.7,43.2,37.6,44.0,39.2,35.5,94,86,73,30.02,29.82,7,2,8,0.00
2012-4-1,59.2,52.5,44.4,55.0,49.0,41.0,97,88,80,29.82,29.69,7,2,11,0.27
2012-4-2,64.5,54.5,44.2,47.9,43.9,41.0,91,69,48,29.93,29.79,12,4,12,0.00
2012-4-3,72.6,57.8,48.5,57.0,46.6,41.0,78,67,54,29.98,29.82,10,2,10,0.00
2012-4-4,62.7,50.3,41.5,41.0,34.1,24.0,79,56,34,30.01,29.92,10,2,12,0.00
2012-4-5,54.3,45.2,33.4,37.0,32.0,25.0,84,61,41,30.20,29.97,13,3,13,0.00
2012-4-6,56.9,43.9,29.6,34.1,29.5,26.0,94,60,33,30.34,30.20,8,2,9,0.00
2012-4-7,65.7,50.8,32.6,47.6,35.8,27.0,88,61,28,30.30,30.13,9,2,17,0.00
2012-4-8,63.8,50.6,38.5,47.0,35.6,26.0,93,61,26,30.29,30.08,15,2,19,0.00
2012-4-9,59.9,51.9,39.3,42.0,29.1,19.8,86,45,25,30.08,29.96,23,4,25,0.00
2012-4-10,46.9,39.4,29.6,25.0,21.0,18.0,77,49,36,30.19,30.06,16,4,16,0.00
2012-4-11,56.8,42.3,28.6,32.3,26.7,21.0,79,56,34,30.33,30.20,7,2,9,0.00
2012-4-12,62.9,48.7,29.7,34.0,29.6,26.0,89,52,27,30.31,30.14,10,1,11,0.00
2012-4-13,61.0,53.6,43.8,45.0,35.4,29.0,73,51,31,30.19,30.00,16,4,23,0.00
2012-4-14,68.2,59.5,51.6,59.0,52.7,45.0,94,78,70,30.02,29.72,9,2,10,0.09
2012-4-15,72.3,66.0,59.4,64.0,61.5,58.0,97,86,75,29.79,29.49,12,4,22,1.79
2012-4-16,66.2,52.3,42.3,62.0,45.5,37.0,89,78,62,30.22,29.46,14,4,26,0.00
2012-4-17,57.8,46.9,35.9,42.1,37.9,34.0,94,73,50,30.41,30.22,4,1,7,0.00
2012-4-18,70.8,57.6,42.9,56.1,47.7,35.0,90,71,52,30.30,29.92,12,2,15,0.00
2012-4-19,62.5,52.0,43.5,55.0,48.8,42.0,97,89,73,29.97,29.72,9,2,9,0.12
2012-4-20,45.2,42.9,36.1,44.0,40.5,34.0,97,91,82,30.05,29.66,6,1,10,0.02
2012-4-21,53.6,42.6,31.5,38.0,33.5,30.0,97,73,47,30.10,30.01,4,1,7,0.00
2012-4-22,53.5,46.0,37.6,35.0,30.7,25.2,86,58,35,30.15,30.00,11,2,11,0.00
2012-4-23,59.6,47.5,31.3,35.3,31.5,25.6,89,57,35,30.12,29.83,8,2,12,0.00
2012-4-24,62.2,52.0,38.4,39.7,33.3,25.0,80,52,28,29.83,29.68,4,1,8,0.00
2012-4-25,64.2,54.7,46.4,53.0,46.4,34.0,93,75,51,29.75,29.61,7,2,11,0.04
2012-4-26,60.0,49.7,35.2,48.0,41.7,31.0,95,76,47,30.17,29.63,5,2,10,0.00
2012-4-27,54.3,42.8,30.3,34.0,26.8,18.0,96,59,28,30.30,30.12,7,2,10,0.00
2012-4-28,50.4,45.3,41.7,43.0,39.5,32.0,93,80,67,30.23,30.00,9,3,11,0.26
2012-4-29,56.7,47.3,39.4,49.0,42.2,38.0,96,84,58,30.27,30.04,8,2,12,0.60
2012-4-30,59.6,53.8,49.9,56.0,51.9,49.0,97,93,87,30.04,29.91,4,1,8,0.14
2012-5-1,62.5,55.0,43.0,59.0,52.4,42.0,98,91,81,30.02,29.82,6,2,10,0.02
2012-5-2,78.2,68.1,58.6,67.0,62.6,58.0,98,83,61,29.88,29.73,8,2,11,0.04
2012-5-3,84.8,74.5,67.3,71.0,67.2,64.0,88,79,57,29.88,29.81,11,2,12,0.00
2012-5-4,75.5,65.6,56.3,67.0,60.8,52.0,97,85,73,30.01,29.77,9,2,19,0.26
2012-5-5,66.4,59.5,53.7,61.0,57.0,53.0,97,91,81,30.06,29.92,5,2,8,0.00
2012-5-6,67.8,60.2,53.5,63.0,57.7,52.0,98,91,80,30.01,29.84,7,2,10,0.39
2012-5-7,67.7,58.9,55.2,60.0,56.7,54.0,98,93,77,29.91,29.79,3,1,7,0.24
2012-5-8,66.8,57.4,50.4,54.0,48.9,44.0,96,75,48,29.90,29.84,7,2,13,0.00
2012-5-9,61.7,53.8,46.3,51.0,46.2,44.0,94,77,54,29.96,29.87,7,1,9,0.00
2012-5-10,69.5,56.4,43.0,48.0,39.8,33.0,96,59,30,30.04,29.95,4,1,7,0.00
2012-5-11,78.6,64.8,47.9,52.0,43.5,31.0,60,47,35,30.10,30.03,8,2,12,0.00
2012-5-12,65.7,60.8,51.3,55.0,50.0,36.0,86,69,47,30.25,30.09,4,1,6,0.00
2012-5-13,73.3,60.6,46.0,44.0,39.3,32.0,84,50,24,30.27,30.12,7,1,8,0.00
2012-5-14,79.7,63.0,42.0,47.0,40.1,33.0,94,51,20,30.13,29.98,6,1,10,0.00
2012-5-15,85.1,69.5,54.7,60.0,49.4,43.0,89,54,23,29.96,29.77,14,2,29,0.05
2012-5-16,71.2,58.2,45.9,50.0,38.7,33.0,77,52,28,30.13,29.91,7,2,9,0.00
2012-5-17,73.5,60.9,41.4,44.0,40.0,34.0,89,50,28,30.18,30.02,7,2,8,0.00
2012-5-18,83.7,70.0,55.3,51.0,42.0,37.0,56,39,21,30.06,29.93,9,2,13,0.00
2012-5-19,89.7,76.0,62.5,63.0,54.4,42.0,71,49,26,30.00,29.90,6,2,13,0.00
2012-5-20,89.1,73.7,61.2,68.0,59.1,53.0,94,63,33,30.05,29.88,9,2,21,0.05
2012-5-21,72.3,61.2,50.6,53.0,47.4,41.0,81,63,37,30.16,30.05,6,2,9,0.00
2012-5-22,76.0,58.3,44.6,46.0,43.2,40.0,93,62,29,30.11,29.91,2,0,7,0.00
2012-5-23,80.5,68.3,49.2,47.0,43.0,40.0,78,44,24,29.93,29.70,10,2,11,0.00
2012-5-24,88.7,78.3,63.7,60.0,54.8,45.0,67,46,32,29.72,29.49,17,4,21,0.00
2012-5-25,78.9,69.2,59.5,63.0,54.3,49.0,86,61,41,30.09,29.63,7,1,11,0.00
2012-5-26,86.2,69.1,61.9,67.0,56.0,48.0,83,64,48,30.22,29.98,6,2,12,0.01
2012-5-27,95.4,81.7,66.5,69.0,61.0,45.0,83,54,18,29.99,29.77,7,2,12,0.00
2012-5-28,89.0,81.6,72.8,66.0,63.2,59.0,72,54,43,29.77,29.61,9,3,18,0.00
2012-5-29,80.1,70.5,57.4,62.0,48.2,39.8,86,48,27,29.87,29.74,15,3,20,0.00
2012-5-30,67.5,58.3,50.5,49.0,45.6,41.0,84,64,42,29.99,29.85,6,2,13,0.00
2012-5-31,51.3,47.3,45.3,46.0,45.0,44.0,96,91,78,30.03,29.92,5,1,7,1.33
2012-6-1,65.4,55.5,47.4,49.0,45.7,39.9,96,72,45,29.93,29.77,8,2,11,0.01
2012-6-2,72.1,61.5,49.5,55.0,49.9,46.0,89,68,44,29.79,29.73,8,1,15,0.00
2012-6-3,78.5,66.4,53.2,56.0,52.7,49.0,96,65,37,29.85,29.79,12,2,15,0.00
2012-6-4,79.1,68.7,59.8,59.0,54.1,49.0,93,62,39,29.93,29.81,4,1,7,0.01
2012-6-5,74.3,64.0,52.5,56.0,50.9,46.0,90,64,41,30.04,29.92,5,1,11,0.00
2012-6-6,79.3,64.4,48.5,54.0,49.1,46.0,95,62,34,30.10,30.03,3,1,5,0.00
2012-6-7,81.6,66.8,48.5,53.0,47.2,42.0,94,55,26,30.14,30.04,4,0,6,0.00
2012-6-8,85.8,72.6,56.8,57.0,52.3,47.0,79,51,32,30.07,29.88,8,1,12,0.00
2012-6-9,87.4,75.3,60.3,57.0,54.3,51.0,80,51,30,29.92,29.81,8,1,13,0.00
2012-6-10,88.4,78.7,67.7,62.0,58.0,54.0,70,51,34,29.92,29.82,9,2,14,0.00
2012-6-11,86.0,76.5,69.1,69.0,63.9,56.0,79,66,47,29.86,29.75,7,2,15,0.00
2012-6-12,74.0,65.7,55.0,56.0,48.8,45.0,77,56,38,30.13,29.86,7,2,11,0.00
2012-6-13,73.4,61.9,47.7,55.0,47.9,43.0,94,63,42,30.20,30.09,4,1,7,0.00
2012-6-14,83.4,70.5,53.5,56.0,51.7,44.0,87,55,36,30.11,29.98,5,2,13,0.00
2012-6-15,90.3,77.4,58.0,60.0,53.5,49.0,80,46,27,30.05,29.96,6,2,14,0.00
2012-6-16,88.4,77.6,67.8,75.0,63.0,52.0,94,62,43,30.00,29.81,19,2,19,0.26
2012-6-17,83.0,73.7,66.5,68.0,63.2,58.0,97,73,43,29.90,29.76,6,1,9,0.24
2012-6-18,89.9,81.1,70.9,72.0,68.4,61.0,87,67,48,29.77,29.60,12,2,17,0.00
2012-6-19,91.1,82.7,72.8,72.0,68.8,65.0,79,64,49,29.90,29.77,7,2,13,0.00
2012-6-20,90.7,82.7,73.7,71.0,66.9,64.0,71,59,48,29.96,29.81,6,2,14,0.00
2012-6-21,83.0,75.4,65.7,67.0,61.3,55.0,86,63,38,29.96,29.82,7,1,14,0.00
2012-6-22,83.8,71.0,57.0,60.0,55.5,51.0,93,62,32,30.02,29.92,5,1,12,0.00
2012-6-23,83.4,71.1,56.6,64.0,58.9,55.0,96,69,40,30.02,29.95,3,0,7,0.00
2012-6-24,89.0,75.5,62.3,66.0,61.9,59.0,89,66,38,29.99,29.88,4,1,9,0.00
2012-6-25,78.0,67.9,55.0,61.0,48.0,40.0,76,51,30,30.09,29.98,5,2,8,0.00
2012-6-26,81.9,67.4,47.5,58.0,51.6,45.0,95,61,35,30.08,29.91,5,1,8,0.00
2012-6-27,89.5,75.8,58.2,63.0,57.0,53.0,84,55,35,29.94,29.74,10,2,13,0.00
2012-6-28,95.9,85.1,74.7,80.0,72.3,61.0,81,66,57,29.83,29.73,6,1,12,0.00
2012-6-29,84.7,74.5,66.5,74.0,66.4,59.0,95,77,52,29.99,29.71,6,1,22,0.49
2012-6-30,89.4,77.0,66.2,74.0,69.5,65.0,97,80,54,29.85,29.77,5,0,7,0.01
2012-7-1,88.6,78.3,67.9,74.0,70.6,61.0,98,79,54,29.98,29.84,5,0,22,0.00
2012-7-2,94.1,82.9,71.5,77.0,73.5,70.0,98,76,51,29.96,29.85,4,0,9,0.00
2012-7-3,93.0,82.4,72.0,77.0,72.3,67.0,90,73,52,29.90,29.78,4,1,14,0.00
2012-7-4,97.5,85.6,73.2,77.0,73.7,71.0,92,70,45,29.86,29.80,5,1,12,0.00
2012-7-5,97.3,85.7,72.2,78.0,73.6,70.0,91,69,46,29.90,29.84,4,1,11,0.00
2012-7-6,99.1,87.7,76.7,80.0,75.1,69.0,94,69,39,29.94,29.87,6,1,10,0.00
2012-7-7,100.2,84.6,71.2,79.0,71.0,56.0,94,66,38,30.00,29.88,8,1,9,0.06
2012-7-8,88.1,78.5,66.9,63.0,57.9,54.0,75,52,33,30.07,30.00,6,1,7,0.00
2012-7-9,90.4,75.6,60.7,65.0,60.4,58.0,91,62,37,30.05,29.99,6,1,7,0.00
2012-7-10,83.4,74.9,61.4,65.0,56.7,50.0,91,56,33,30.11,30.04,4,1,5,0.00
2012-7-11,88.6,72.4,54.6,63.0,56.2,51.0,93,61,31,30.14,30.04,4,1,5,0.00
2012-7-12,90.5,77.0,62.4,64.0,59.8,56.0,93,59,34,30.08,29.99,5,1,10,0.00
2012-7-13,88.5,76.4,64.7,67.0,63.4,58.0,83,65,47,30.04,29.97,5,1,10,0.00
2012-7-14,86.8,75.2,68.5,74.0,68.8,66.0,96,82,55,30.07,29.94,4,0,7,0.26
2012-7-15,92.0,79.4,67.8,74.0,69.8,67.0,97,75,46,30.04,29.95,7,1,8,0.00
2012-7-16,94.2,82.9,70.8,73.0,70.8,68.0,95,69,43,29.98,29.80,4,1,11,0.00
2012-7-17,95.7,85.3,75.1,74.0,71.3,68.0,87,65,41,29.82,29.76,11,1,13,0.00
2012-7-18,96.6,82.0,70.2,76.0,72.3,67.0,96,75,44,29.93,29.77,9,1,12,0.69
2012-7-19,83.4,75.0,69.0,75.0,70.6,66.0,98,87,71,29.98,29.80,5,1,10,0.11
2012-7-20,83.3,73.7,65.4,67.0,64.2,61.0,94,74,47,30.08,29.97,4,1,7,0.00
2012-7-21,85.9,74.9,60.7,73.0,66.3,59.0,95,76,58,30.11,30.00,8,1,9,0.00
2012-7-22,87.8,77.0,67.4,73.0,69.3,66.0,97,78,56,30.09,29.95,3,0,8,0.00
2012-7-23,90.0,82.1,74.5,78.0,71.6,65.0,90,71,60,29.95,29.86,8,1,11,0.01
2012-7-24,78.6,74.9,70.2,76.0,71.3,64.0,94,88,78,29.97,29.85,9,0,15,0.00
2012-7-25,95.6,81.1,68.4,78.0,70.4,64.0,90,72,49,29.91,29.53,8,2,11,0.00
2012-7-26,86.4,77.6,68.5,74.0,70.0,65.0,94,78,58,29.76,29.52,7,2,17,0.04
2012-7-27,82.3,72.4,65.0,67.0,64.3,62.0,94,77,53,29.99,29.74,7,1,13,0.02
2012-7-28,83.9,72.5,61.3,67.0,63.0,60.0,98,75,47,30.12,30.00,3,0,6,0.00
2012-7-29,83.2,72.4,61.6,72.0,63.5,59.0,93,75,49,30.08,29.96,5,0,9,0.01
2012-7-30,90.8,78.7,66.6,72.0,67.2,61.0,88,70,49,29.95,29.83,5,1,9,0.01
2012-7-31,87.8,77.2,66.8,71.0,67.5,64.8,98,74,50,29.93,29.83,4,0,8,0.14
2012-8-1,89.1,74.9,62.0,69.0,65.4,61.0,98,75,44,29.96,29.83,5,1,9,0.00
2012-8-2,89.9,78.0,66.1,68.0,65.8,63.0,91,68,46,29.89,29.77,5,0,6,0.00
2012-8-3,94.6,79.7,64.1,73.0,66.9,62.0,98,69,36,29.86,29.81,4,1,8,0.00
2012-8-4,90.8,75.2,68.6,74.0,69.6,67.0,97,84,53,29.90,29.73,6,1,23,0.20
2012-8-5,82.6,71.6,60.8,69.0,61.7,54.0,98,74,38,30.14,29.89,6,1,11,0.20
2012-8-6,83.3,69.3,53.9,63.0,56.3,52.0,98,68,36,30.15,29.98,5,1,9,0.00
2012-8-7,90.4,75.1,58.4,71.0,63.2,57.0,95,70,42,29.98,29.87,6,1,13,0.00
2012-8-8,82.7,70.9,62.5,71.0,65.8,61.0,98,85,59,29.97,29.92,3,0,7,0.08
2012-8-9,74.2,65.0,60.4,68.0,63.2,60.0,98,94,79,29.93,29.85,3,1,5,0.15
2012-8-10,75.9,65.5,55.4,62.0,56.9,51.0,98,77,47,29.97,29.85,5,1,9,0.15
2012-8-11,78.3,64.2,52.1,58.0,52.8,49.0,91,70,41,30.01,29.96,4,1,8,0.00
2012-8-12,74.5,63.5,52.2,61.0,56.0,51.0,96,79,47,30.03,29.95,4,0,8,0.00
2012-8-13,68.8,63.2,57.0,65.0,61.3,56.0,97,93,83,29.97,29.93,1,0,3,0.01
2012-8-14,81.8,68.8,52.9,67.0,60.8,52.0,99,78,47,29.95,29.87,8,1,8,0.01
2012-8-15,83.5,73.1,62.5,66.0,62.9,60.0,95,73,45,29.93,29.83,4,1,12,0.00
2012-8-16,76.2,69.8,59.0,68.0,62.0,55.0,96,77,57,29.92,29.74,7,2,18,0.29
2012-8-17,75.5,62.9,52.1,57.0,52.5,48.0,94,72,40,30.02,29.92,5,1,7,0.00
2012-8-18,75.7,63.2,47.8,59.0,52.6,47.0,98,72,40,30.03,29.91,5,0,8,0.00
2012-8-19,77.2,65.0,54.1,58.0,54.2,50.0,96,72,39,29.96,29.89,5,1,6,0.03
2012-8-20,78.2,63.8,51.4,61.0,54.6,49.0,98,76,36,30.00,29.91,7,1,8,0.03
2012-8-21,80.7,64.5,48.2,59.0,51.5,47.0,98,68,33,30.09,30.01,4,0,6,0.00
2012-8-22,84.3,70.0,53.7,60.0,54.3,50.0,87,61,33,30.11,30.00,5,1,8,0.00
2012-8-23,91.7,77.9,65.1,61.0,58.1,54.0,77,53,31,30.07,29.96,5,1,9,0.01
2012-8-24,92.6,82.4,69.0,64.0,60.1,57.0,70,49,31,30.00,29.92,4,1,9,0.00
2012-8-25,90.8,78.8,64.3,64.0,60.8,58.0,86,57,34,30.02,29.94,4,1,12,0.00
2012-8-26,75.4,71.9,69.2,71.0,67.2,60.0,98,86,59,30.00,29.94,4,1,7,0.25
2012-8-27,86.3,73.0,63.3,70.0,63.0,53.0,99,76,32,30.07,29.98,6,1,10,0.25
2012-8-28,86.4,71.3,55.6,67.0,59.6,55.0,97,71,39,30.12,30.01,4,1,7,0.00
2012-8-29,85.4,73.4,59.9,65.0,62.2,58.0,95,71,48,30.08,29.97,5,1,9,0.00
2012-8-30,89.7,78.0,66.0,67.0,63.1,60.0,82,62,40,30.01,29.90,5,1,11,0.00
2012-8-31,93.0,79.0,64.5,72.0,66.3,60.0,87,67,47,30.04,29.94,6,1,11,0.00
2012-9-1,75.3,71.5,69.0,67.0,63.5,59.0,89,76,67,30.05,29.94,8,2,12,0.00
2012-9-2,85.8,75.8,69.1,72.0,69.5,64.0,93,81,64,29.94,29.85,7,2,8,0.00
2012-9-3,92.4,77.8,63.6,73.0,67.7,62.0,98,74,46,29.92,29.82,5,0,6,0.00
2012-9-4,93.2,80.2,63.4,72.0,67.3,59.0,93,68,36,29.92,29.75,6,1,14,0.20
2012-9-5,87.9,73.2,62.3,68.0,64.0,61.0,96,76,42,29.95,29.72,9,2,17,0.01
2012-9-6,83.0,72.3,61.4,67.0,59.2,49.0,96,68,31,29.92,29.81,6,1,11,0.01
2012-9-7,75.0,66.1,55.3,66.0,61.3,54.0,96,85,65,29.89,29.77,6,1,8,0.13
2012-9-8,71.9,60.6,50.1,56.0,51.1,48.0,96,74,43,29.92,29.79,8,2,16,0.08
2012-9-9,71.6,60.7,51.9,55.0,51.4,46.0,97,75,42,30.15,29.85,6,1,9,0.08
2012-9-10,76.4,61.7,45.5,55.0,49.2,44.0,98,68,37,30.22,30.07,7,1,11,0.00
2012-9-11,83.0,70.1,55.8,59.0,54.4,50.0,84,60,38,30.13,30.01,8,2,15,0.00
2012-9-12,86.5,73.2,59.9,62.0,57.8,55.0,87,62,37,30.12,30.03,5,1,9,0.00
2012-9-13,69.1,57.1,51.1,58.0,51.3,48.0,97,82,66,30.34,30.11,3,0,6,0.29
2012-9-14,74.0,58.6,43.8,56.0,48.0,43.0,99,73,36,30.37,30.27,7,1,14,0.29
2012-9-15,78.1,61.7,46.0,52.0,48.2,44.0,96,66,30,30.31,30.12,5,0,8,0.00
2012-9-16,76.6,61.8,47.0,55.0,49.5,45.0,95,68,34,30.13,29.95,5,1,11,0.00
2012-9-17,77.5,61.9,54.0,63.0,56.5,51.0,97,84,53,29.96,29.73,6,1,10,0.17
2012-9-18,60.9,51.7,42.4,51.0,40.8,33.0,95,70,37,30.04,29.82,7,2,13,0.17
2012-9-19,73.3,56.0,37.4,50.0,41.8,35.0,93,63,35,30.06,29.78,10,2,18,0.00
2012-9-20,69.4,58.9,46.8,51.0,41.7,34.0,90,58,29,29.93,29.82,8,1,14,0.00
2012-9-21,55.7,49.9,45.1,50.0,46.1,41.0,97,87,74,29.94,29.80,4,0,8,0.12
2012-9-22,57.8,49.6,42.5,49.0,42.0,36.0,97,77,54,30.20,29.81,13,2,16,0.16
2012-9-23,59.4,47.8,35.9,41.0,35.7,29.0,96,68,32,30.28,30.19,6,1,11,0.00
2012-9-24,71.2,52.8,33.0,42.0,36.0,31.0,95,59,28,30.24,29.90,8,1,15,0.00
2012-9-25,79.6,63.7,48.7,59.0,50.9,42.0,93,66,42,29.91,29.78,5,1,8,0.00
2012-9-26,71.0,57.7,48.9,56.0,49.5,43.0,98,77,44,30.18,29.86,3,1,7,0.00
2012-9-27,64.3,51.1,38.1,50.0,43.9,36.0,97,78,53,30.23,30.17,5,1,7,0.00
2012-9-28,70.3,54.0,40.7,48.0,43.9,39.0,95,72,42,30.22,30.12,4,0,8,0.00
2012-9-29,79.1,58.7,42.4,48.0,43.0,40.0,96,63,26,30.14,29.93,8,1,10,0.00
2012-9-30,69.1,54.3,40.9,53.0,43.9,39.0,98,71,39,30.00,29.93,5,1,8,0.00
2012-10-1,68.7,54.1,40.5,52.0,43.3,39.0,97,71,39,29.95,29.83,3,0,5,0.00
2012-10-2,72.8,56.9,43.7,54.0,45.7,42.0,96,70,37,29.92,29.82,5,1,7,0.00
2012-10-3,67.3,59.0,51.4,59.0,55.2,48.0,94,87,68,30.02,29.90,2,0,4,0.01
2012-10-4,74.1,58.2,47.3,57.0,50.5,36.0,93,77,54,30.12,29.96,7,2,13,0.01
2012-10-5,51.1,44.2,36.0,36.0,29.8,22.0,83,59,35,30.17,30.07,7,2,15,0.01
2012-10-6,47.0,40.4,32.4,30.0,27.9,25.0,79,62,49,30.21,30.09,9,2,11,0.00
2012-10-7,50.0,41.7,32.9,30.0,25.3,21.0,75,55,32,30.22,30.13,5,1,12,0.00
2012-10-8,60.4,46.2,31.4,34.0,29.0,24.0,75,54,33,30.15,29.98,8,2,15,0.00
2012-10-9,65.9,53.3,42.2,43.0,39.6,34.0,95,62,42,29.98,29.78,13,2,18,0.22
2012-10-10,50.9,41.5,34.4,41.0,32.4,28.0,95,72,43,30.19,29.92,11,2,15,0.22
2012-10-11,66.4,48.4,35.0,42.0,35.8,30.0,89,65,35,30.27,30.04,9,2,17,0.01
2012-10-12,55.1,44.7,28.3,41.0,32.9,25.0,89,65,42,30.46,30.26,5,2,9,0.01
2012-10-13,63.7,54.2,43.8,63.0,50.2,32.0,97,87,56,30.27,29.77,7,2,12,0.02
2012-10-14,66.4,58.8,47.6,63.0,57.1,45.0,98,94,85,29.79,29.40,11,3,22,0.57
2012-10-15,58.8,48.3,40.5,45.0,41.4,39.0,94,79,50,29.96,29.79,7,2,10,0.57
2012-10-16,69.4,56.3,42.0,55.0,47.4,40.0,94,74,53,29.96,29.52,12,4,20,0.00
2012-10-17,66.9,59.9,52.0,59.0,53.5,50.0,97,80,68,29.52,29.26,10,3,18,0.83
2012-10-18,52.0,46.5,43.4,51.0,43.0,40.0,95,88,68,29.47,29.31,8,2,16,0.12
2012-10-19,50.4,45.7,41.8,46.0,43.6,40.0,97,92,80,29.67,29.43,4,1,8,0.01
2012-10-20,57.2,45.1,36.0,46.0,40.2,35.0,97,84,55,29.95,29.68,5,1,11,0.02
2012-10-21,67.7,53.1,36.9,52.1,46.1,36.0,98,79,56,30.04,29.94,8,2,12,0.00
2012-10-22,64.7,59.9,55.6,62.0,57.6,51.0,98,92,78,29.96,29.86,7,1,7,0.28
2012-10-23,70.0,63.9,59.6,66.0,62.3,59.0,99,94,85,29.91,29.84,5,2,11,0.29
2012-10-24,77.9,68.7,61.6,68.0,63.9,60.0,94,85,71,29.91,29.79,7,2,11,0.00
2012-10-25,72.9,61.3,42.2,65.0,56.8,38.0,94,86,75,30.06,29.62,10,4,20,0.17
2012-10-26,48.1,40.7,33.0,38.0,32.1,29.0,89,73,50,30.35,30.07,7,2,14,0.17
2012-10-27,45.6,35.4,27.9,32.0,28.5,26.0,94,78,50,30.38,30.29,6,1,10,0.00
2012-10-28,48.8,37.8,29.7,37.0,30.5,27.0,91,76,54,30.35,30.29,5,1,9,0.00
2012-10-29,51.9,38.6,28.5,35.0,28.8,25.0,92,72,36,30.35,30.12,9,2,10,0.00
2012-10-30,47.1,39.7,35.7,31.0,28.4,25.0,79,65,47,30.12,29.84,12,4,19,0.00
2012-10-31,49.3,38.3,30.3,34.0,27.2,20.0,83,65,51,29.90,29.84,10,3,16,0.00
2012-11-1,54.1,40.3,32.6,33.0,26.5,21.0,83,60,40,29.94,29.84,6,2,9,0.00
2012-11-2,47.0,36.5,27.9,33.0,29.4,25.0,94,77,50,30.20,29.96,5,1,8,0.00
2012-11-3,46.1,37.9,29.2,35.0,31.9,26.0,92,80,63,30.25,30.17,5,1,8,0.00
2012-11-4,47.8,36.1,26.2,32.0,29.2,24.0,93,78,53,30.28,30.21,4,1,8,0.00
2012-11-5,44.0,31.5,22.6,35.0,27.3,21.0,97,85,67,30.24,30.18,3,0,6,0.00
2012-11-6,39.5,38.5,37.7,39.0,32.4,-99.9,97,92,94,29.92,29.90,3,1,7,0.07
2012-11-7,42.9,40.8,39.5,41.0,39.7,39.0,97,96,92,30.18,29.91,2,0,5,0.07
2012-11-8,46.1,41.1,38.2,39.0,37.5,35.0,97,87,73,30.23,30.09,5,1,9,0.00
2012-11-9,52.7,45.1,36.6,46.0,41.3,35.0,94,87,75,30.12,29.98,4,1,8,0.00
2012-11-10,65.8,57.9,49.1,58.0,52.4,46.0,93,82,65,30.00,29.83,10,4,18,0.13
2012-11-11,67.8,56.7,35.6,57.0,50.5,34.0,96,81,67,29.95,29.67,12,5,27,0.43
2012-11-12,35.3,30.4,26.2,34.0,24.7,21.0,93,79,67,30.39,29.93,11,4,19,0.43
2012-11-13,40.0,29.8,20.6,28.0,22.8,18.0,90,76,56,30.55,30.39,5,1,8,0.00
2012-11-14,45.5,36.7,27.9,31.0,28.8,24.0,85,74,57,30.53,30.39,6,2,9,0.00
2012-11-15,49.7,38.0,30.3,34.0,30.5,27.0,90,75,51,30.40,30.33,5,1,7,0.00
2012-11-16,54.1,38.1,25.9,37.0,31.9,24.0,96,80,52,30.50,30.39,5,1,7,0.00
2012-11-17,53.4,37.9,27.1,36.0,31.4,26.0,97,80,50,30.56,30.46,6,1,8,0.00
2012-11-18,53.9,44.8,33.7,39.0,35.6,31.0,89,71,54,30.46,30.31,6,2,8,0.00
2012-11-19,57.4,48.7,42.3,44.0,39.6,35.0,80,71,59,30.31,30.10,6,2,9,0.00
2012-11-20,57.4,48.0,35.2,49.0,43.4,34.0,96,84,69,30.19,30.08,4,0,6,0.00
2012-11-21,55.8,43.8,34.4,51.0,41.7,34.0,99,92,76,30.25,30.08,6,1,11,0.00
2012-11-22,62.3,51.0,39.0,52.0,45.7,33.0,95,83,60,30.08,29.77,10,3,20,0.03
2012-11-23,39.0,31.2,27.4,33.0,22.7,19.0,81,71,64,30.26,29.90,11,5,26,0.03
2012-11-24,33.4,28.5,25.7,24.0,20.4,18.0,77,72,61,30.30,29.99,10,2,11,0.00
2012-11-25,41.6,33.1,25.2,27.0,25.4,22.0,89,74,56,30.12,29.88,5,1,9,0.00
2012-11-26,34.3,27.2,17.2,25.0,20.4,13.0,87,76,60,30.43,30.12,3,1,7,0.00
2012-11-27,33.3,23.5,12.8,20.0,14.5,10.0,89,70,46,30.47,30.29,6,1,10,0.00
2012-11-28,44.7,31.8,21.6,26.0,22.2,17.0,84,69,44,30.42,30.29,7,1,9,0.00
2012-11-29,50.9,40.1,29.3,36.0,31.5,25.0,86,72,56,30.28,30.09,7,2,8,0.00
2012-11-30,53.1,41.8,30.8,40.0,35.4,29.0,95,79,58,30.17,30.06,5,1,10,0.00
2012-12-1,59.1,46.3,28.2,54.0,43.2,27.0,98,89,81,30.15,29.87,8,2,12,0.01
2012-12-2,62.7,54.0,43.3,54.0,50.0,42.0,98,87,66,30.06,29.86,5,1,8,0.01
2012-12-3,68.4,58.3,47.2,63.0,55.9,47.0,99,92,77,30.03,29.73,10,3,14,0.12
2012-12-4,56.7,46.8,32.9,47.0,38.4,28.0,90,74,50,30.32,29.91,7,2,15,0.12
2012-12-5,40.5,31.4,22.6,29.0,24.7,19.0,88,77,57,30.46,30.23,5,2,11,0.00
2012-12-6,45.4,39.5,33.5,40.0,34.6,29.0,87,83,74,30.23,29.91,9,2,11,0.01
2012-12-7,43.0,40.2,36.9,40.0,37.2,35.0,96,89,78,29.99,29.92,4,1,6,0.01
2012-12-8,39.9,35.8,33.3,37.0,33.9,32.0,97,93,83,30.12,29.91,5,2,8,0.05
2012-12-9,39.8,37.3,33.7,39.0,36.2,32.0,98,95,86,30.09,29.74,7,2,13,0.01
2012-12-10,36.2,31.1,29.3,35.0,28.8,26.0,96,91,81,29.98,29.74,9,2,16,0.01
2012-12-11,34.2,28.4,20.5,27.0,23.8,19.0,93,83,69,30.18,29.98,9,2,14,0.00
2012-12-12,44.8,34.5,24.4,30.0,27.2,22.0,90,75,56,30.30,30.18,9,2,13,0.00
2012-12-13,47.9,37.3,30.9,32.0,29.1,26.0,88,73,53,30.27,30.11,10,2,16,0.00
2012-12-14,48.1,37.5,25.0,37.0,31.4,23.0,96,80,58,30.22,30.03,7,2,11,0.00
2012-12-15,48.0,44.9,41.0,47.0,42.1,35.0,97,90,74,30.02,29.55,12,3,17,0.11
2012-12-16,47.3,41.2,37.8,47.0,39.2,35.0,97,92,89,29.75,29.57,7,2,13,0.11
2012-12-17,37.7,34.5,27.9,35.0,31.6,26.0,93,89,84,29.77,29.70,4,0,8,0.00
2012-12-18,39.1,33.6,28.1,37.0,31.6,27.0,96,92,89,29.86,29.61,8,2,13,0.00
2012-12-19,39.2,33.9,30.9,38.0,31.7,29.0,95,91,85,30.08,29.80,7,1,12,0.04
2012-12-20,43.6,37.6,30.4,43.0,36.8,29.0,98,97,94,29.79,29.05,15,6,24,0.01
2012-12-21,30.3,23.0,17.0,29.0,19.3,13.0,95,86,79,30.25,29.58,17,5,20,0.01
2012-12-22,30.6,19.7,11.9,24.0,16.2,10.0,95,86,72,30.27,30.00,4,1,6,0.01
2012-12-23,30.0,21.8,14.6,27.0,19.7,13.0,95,91,84,30.09,29.97,3,1,7,0.01
2012-12-24,31.0,26.8,23.4,29.0,24.7,21.0,93,91,88,30.17,29.92,4,2,9,0.01
2012-12-25,26.5,21.6,13.8,23.0,18.7,12.0,92,88,84,30.38,30.16,5,2,8,0.00
2012-12-26,32.0,28.0,24.6,27.0,24.6,22.0,93,87,77,30.27,30.06,6,3,20,0.00
2012-12-27,30.3,27.3,24.8,27.0,24.3,22.0,91,88,84,30.24,30.15,7,1,8,0.00
2012-12-28,31.0,29.9,27.8,30.0,28.2,26.0,97,93,89,30.15,29.92,5,1,8,0.00
2012-12-29,30.9,25.1,14.5,30.0,22.6,12.0,97,90,84,30.27,29.90,8,2,15,0.00
2012-12-30,32.7,23.2,9.8,28.0,19.2,8.0,92,85,78,30.39,30.09,5,2,14,0.00
2012-12-31,33.7,26.9,17.9,27.0,22.2,13.0,88,82,76,30.20,30.04,7,2,14,0.00
2013-1-1,19.8,11.7,6.0,13.0,6.6,3.0,87,80,63,30.30,30.19,5,1,8,0.00